Nabesna, Alaska
Current Conditions -  °F | °C
As of 8:53 AM on Thursday 23 Oct 2014 (Local Time) from PAOR Reporting Station
Overcast Overcast  
Wind Chill: 16°   Ceiling: 3600
Heat Index: 24°   Visibility: 10mi
Dew Point: 20°   Wind: 7mph
Humidity: 84%   Direction: 310°NW
Pressure: 29.67"   Gusts: NA
Location:  62.4°N, 143°W
Report Text: PAOR 231653Z 31006KT 10SM FEW006 BKN036 OVC043 M04/M07 A2967 RMK AO2 SNE36 SLP082 VCSH NW T10441067
Loading
Personal Weather Stations






























Interactive Weather Map
Tropical Storm Tracking
New forecast layout! Learn more

10-Day Weather Forecast

Advertisements
Track Severe Weather on mobile